sensor_id;sensor_type;location;lat;lon;timestamp;P1;durP1;ratioP1;P2;durP2;ratioP2
47167;SDS011;32931;47.778;17.806;2024-02-26T00:00:57;24.85;;;15.95;;
47167;SDS011;32931;47.778;17.806;2024-02-26T00:03:24;25.13;;;16.10;;
47167;SDS011;32931;47.778;17.806;2024-02-26T00:05:50;27.73;;;15.95;;
47167;SDS011;32931;47.778;17.806;2024-02-26T00:08:16;25.80;;;16.75;;
47167;SDS011;32931;47.778;17.806;2024-02-26T00:10:42;25.48;;;15.90;;
47167;SDS011;32931;47.778;17.806;2024-02-26T00:13:08;28.83;;;17.50;;
47167;SDS011;32931;47.778;17.806;2024-02-26T00:15:34;31.63;;;18.02;;
47167;SDS011;32931;47.778;17.806;2024-02-26T00:18:01;29.33;;;18.50;;
47167;SDS011;32931;47.778;17.806;2024-02-26T00:20:27;31.95;;;18.55;;
47167;SDS011;32931;47.778;17.806;2024-02-26T00:22:53;35.08;;;19.33;;
47167;SDS011;32931;47.778;17.806;2024-02-26T00:25:19;38.67;;;21.42;;
47167;SDS011;32931;47.778;17.806;2024-02-26T00:27:45;40.25;;;22.77;;
47167;SDS011;32931;47.778;17.806;2024-02-26T00:30:11;39.65;;;22.77;;
47167;SDS011;32931;47.778;17.806;2024-02-26T00:32:38;41.88;;;22.95;;
47167;SDS011;32931;47.778;17.806;2024-02-26T00:35:04;41.00;;;24.35;;
47167;SDS011;32931;47.778;17.806;2024-02-26T00:37:30;38.25;;;23.05;;
47167;SDS011;32931;47.778;17.806;2024-02-26T00:39:57;42.42;;;25.00;;
47167;SDS011;32931;47.778;17.806;2024-02-26T00:42:23;42.40;;;24.63;;
47167;SDS011;32931;47.778;17.806;2024-02-26T00:44:49;39.30;;;24.35;;
47167;SDS011;32931;47.778;17.806;2024-02-26T00:47:15;42.67;;;26.05;;
47167;SDS011;32931;47.778;17.806;2024-02-26T00:49:41;43.58;;;25.48;;
47167;SDS011;32931;47.778;17.806;2024-02-26T00:52:07;47.45;;;26.75;;
47167;SDS011;32931;47.778;17.806;2024-02-26T00:54:33;44.70;;;26.67;;
47167;SDS011;32931;47.778;17.806;2024-02-26T00:56:59;49.65;;;27.20;;
47167;SDS011;32931;47.778;17.806;2024-02-26T00:59:26;47.95;;;27.05;;
47167;SDS011;32931;47.778;17.806;2024-02-26T01:01:52;47.17;;;26.67;;
47167;SDS011;32931;47.778;17.806;2024-02-26T01:04:18;43.70;;;26.15;;
47167;SDS011;32931;47.778;17.806;2024-02-26T01:06:44;45.03;;;26.65;;
47167;SDS011;32931;47.778;17.806;2024-02-26T01:09:10;41.65;;;26.40;;
47167;SDS011;32931;47.778;17.806;2024-02-26T01:11:36;44.17;;;27.45;;
47167;SDS011;32931;47.778;17.806;2024-02-26T01:14:02;48.72;;;28.02;;
47167;SDS011;32931;47.778;17.806;2024-02-26T01:16:29;49.40;;;28.80;;
47167;SDS011;32931;47.778;17.806;2024-02-26T01:18:56;46.20;;;26.73;;
47167;SDS011;32931;47.778;17.806;2024-02-26T01:21:22;48.45;;;28.83;;
47167;SDS011;32931;47.778;17.806;2024-02-26T01:23:48;45.55;;;27.95;;
47167;SDS011;32931;47.778;17.806;2024-02-26T01:26:14;46.92;;;28.33;;
47167;SDS011;32931;47.778;17.806;2024-02-26T01:28:40;49.33;;;28.77;;
47167;SDS011;32931;47.778;17.806;2024-02-26T01:31:07;49.33;;;29.42;;
47167;SDS011;32931;47.778;17.806;2024-02-26T01:33:35;48.45;;;29.63;;
47167;SDS011;32931;47.778;17.806;2024-02-26T01:36:02;51.53;;;30.23;;
47167;SDS011;32931;47.778;17.806;2024-02-26T01:38:28;50.72;;;30.70;;
47167;SDS011;32931;47.778;17.806;2024-02-26T01:40:54;54.72;;;31.05;;
47167;SDS011;32931;47.778;17.806;2024-02-26T01:43:20;59.55;;;31.77;;
47167;SDS011;32931;47.778;17.806;2024-02-26T01:45:46;55.30;;;32.33;;
47167;SDS011;32931;47.778;17.806;2024-02-26T01:48:12;59.40;;;33.08;;
47167;SDS011;32931;47.778;17.806;2024-02-26T01:50:39;55.72;;;32.92;;
47167;SDS011;32931;47.778;17.806;2024-02-26T01:53:06;60.63;;;33.13;;
47167;SDS011;32931;47.778;17.806;2024-02-26T01:55:33;58.83;;;33.28;;
47167;SDS011;32931;47.778;17.806;2024-02-26T01:58:00;55.65;;;31.70;;
47167;SDS011;32931;47.778;17.806;2024-02-26T02:00:26;57.00;;;33.75;;
47167;SDS011;32931;47.778;17.806;2024-02-26T02:02:53;59.85;;;32.65;;
47167;SDS011;32931;47.778;17.806;2024-02-26T02:05:21;58.42;;;34.45;;
47167;SDS011;32931;47.778;17.806;2024-02-26T02:07:48;59.55;;;33.17;;
47167;SDS011;32931;47.778;17.806;2024-02-26T02:10:15;58.65;;;33.70;;
47167;SDS011;32931;47.778;17.806;2024-02-26T02:12:42;57.97;;;33.88;;
47167;SDS011;32931;47.778;17.806;2024-02-26T02:15:09;62.63;;;34.63;;
47167;SDS011;32931;47.778;17.806;2024-02-26T02:17:35;58.70;;;34.58;;
47167;SDS011;32931;47.778;17.806;2024-02-26T02:20:02;56.90;;;33.30;;
47167;SDS011;32931;47.778;17.806;2024-02-26T02:22:29;59.15;;;34.47;;
47167;SDS011;32931;47.778;17.806;2024-02-26T02:24:57;60.30;;;34.13;;
47167;SDS011;32931;47.778;17.806;2024-02-26T02:27:24;57.78;;;33.58;;
47167;SDS011;32931;47.778;17.806;2024-02-26T02:29:51;62.03;;;35.20;;
47167;SDS011;32931;47.778;17.806;2024-02-26T02:32:18;63.75;;;35.42;;
47167;SDS011;32931;47.778;17.806;2024-02-26T02:34:45;62.00;;;35.28;;
47167;SDS011;32931;47.778;17.806;2024-02-26T02:37:12;72.53;;;37.03;;
47167;SDS011;32931;47.778;17.806;2024-02-26T02:39:38;63.10;;;35.20;;
47167;SDS011;32931;47.778;17.806;2024-02-26T02:42:05;65.88;;;36.42;;
47167;SDS011;32931;47.778;17.806;2024-02-26T02:44:31;63.95;;;35.97;;
47167;SDS011;32931;47.778;17.806;2024-02-26T02:46:57;64.97;;;37.13;;
47167;SDS011;32931;47.778;17.806;2024-02-26T02:49:24;62.70;;;37.17;;
47167;SDS011;32931;47.778;17.806;2024-02-26T02:51:50;63.72;;;36.33;;
47167;SDS011;32931;47.778;17.806;2024-02-26T02:54:16;68.80;;;37.50;;
47167;SDS011;32931;47.778;17.806;2024-02-26T02:56:42;65.53;;;38.10;;
47167;SDS011;32931;47.778;17.806;2024-02-26T02:59:08;68.90;;;37.90;;
47167;SDS011;32931;47.778;17.806;2024-02-26T03:01:35;71.30;;;39.30;;
47167;SDS011;32931;47.778;17.806;2024-02-26T03:04:01;73.95;;;39.25;;
47167;SDS011;32931;47.778;17.806;2024-02-26T03:06:27;70.57;;;39.15;;
47167;SDS011;32931;47.778;17.806;2024-02-26T03:08:54;75.55;;;39.65;;
47167;SDS011;32931;47.778;17.806;2024-02-26T03:11:20;71.57;;;38.53;;
47167;SDS011;32931;47.778;17.806;2024-02-26T03:13:46;72.50;;;39.05;;
47167;SDS011;32931;47.778;17.806;2024-02-26T03:16:12;71.32;;;39.13;;
47167;SDS011;32931;47.778;17.806;2024-02-26T03:18:39;74.82;;;39.03;;
47167;SDS011;32931;47.778;17.806;2024-02-26T03:21:08;80.85;;;40.85;;
47167;SDS011;32931;47.778;17.806;2024-02-26T03:23:34;74.53;;;39.90;;
47167;SDS011;32931;47.778;17.806;2024-02-26T03:26:03;72.20;;;38.75;;
47167;SDS011;32931;47.778;17.806;2024-02-26T03:28:30;81.35;;;40.90;;
47167;SDS011;32931;47.778;17.806;2024-02-26T03:30:59;74.38;;;38.97;;
47167;SDS011;32931;47.778;17.806;2024-02-26T03:33:25;77.20;;;39.05;;
47167;SDS011;32931;47.778;17.806;2024-02-26T03:35:51;74.75;;;38.55;;
47167;SDS011;32931;47.778;17.806;2024-02-26T03:38:17;74.25;;;39.17;;
47167;SDS011;32931;47.778;17.806;2024-02-26T03:40:44;69.95;;;38.10;;
47167;SDS011;32931;47.778;17.806;2024-02-26T03:43:10;76.15;;;39.75;;
47167;SDS011;32931;47.778;17.806;2024-02-26T03:45:36;81.25;;;39.30;;
47167;SDS011;32931;47.778;17.806;2024-02-26T03:48:02;83.20;;;40.35;;
47167;SDS011;32931;47.778;17.806;2024-02-26T03:50:28;74.45;;;38.78;;
47167;SDS011;32931;47.778;17.806;2024-02-26T03:52:55;72.82;;;38.35;;
47167;SDS011;32931;47.778;17.806;2024-02-26T03:55:22;74.40;;;38.78;;
47167;SDS011;32931;47.778;17.806;2024-02-26T03:57:51;75.40;;;38.47;;
47167;SDS011;32931;47.778;17.806;2024-02-26T04:00:17;75.15;;;37.92;;
47167;SDS011;32931;47.778;17.806;2024-02-26T04:02:44;76.53;;;38.95;;
47167;SDS011;32931;47.778;17.806;2024-02-26T04:05:10;73.53;;;37.20;;
47167;SDS011;32931;47.778;17.806;2024-02-26T04:07:37;73.10;;;38.33;;
47167;SDS011;32931;47.778;17.806;2024-02-26T04:10:07;72.50;;;37.75;;
47167;SDS011;32931;47.778;17.806;2024-02-26T04:15:07;71.07;;;37.75;;
47167;SDS011;32931;47.778;17.806;2024-02-26T04:17:34;78.57;;;39.00;;
47167;SDS011;32931;47.778;17.806;2024-02-26T04:20:01;82.93;;;41.55;;
47167;SDS011;32931;47.778;17.806;2024-02-26T04:22:28;79.43;;;38.08;;
47167;SDS011;32931;47.778;17.806;2024-02-26T04:24:55;84.57;;;38.88;;
47167;SDS011;32931;47.778;17.806;2024-02-26T04:27:21;90.63;;;40.80;;
47167;SDS011;32931;47.778;17.806;2024-02-26T04:29:47;82.60;;;39.78;;
47167;SDS011;32931;47.778;17.806;2024-02-26T04:32:13;83.90;;;40.05;;
47167;SDS011;32931;47.778;17.806;2024-02-26T04:34:39;81.82;;;39.95;;
47167;SDS011;32931;47.778;17.806;2024-02-26T04:37:06;88.07;;;41.55;;
47167;SDS011;32931;47.778;17.806;2024-02-26T04:39:32;85.07;;;41.40;;
47167;SDS011;32931;47.778;17.806;2024-02-26T04:41:58;86.70;;;39.85;;
47167;SDS011;32931;47.778;17.806;2024-02-26T04:44:24;83.97;;;39.00;;
47167;SDS011;32931;47.778;17.806;2024-02-26T04:46:51;84.00;;;40.92;;
47167;SDS011;32931;47.778;17.806;2024-02-26T04:49:17;82.57;;;40.20;;
47167;SDS011;32931;47.778;17.806;2024-02-26T04:51:43;84.60;;;40.17;;
47167;SDS011;32931;47.778;17.806;2024-02-26T04:54:09;80.00;;;39.80;;
47167;SDS011;32931;47.778;17.806;2024-02-26T04:56:35;78.10;;;38.97;;
47167;SDS011;32931;47.778;17.806;2024-02-26T04:59:01;75.22;;;38.05;;
47167;SDS011;32931;47.778;17.806;2024-02-26T05:01:27;75.55;;;37.35;;
47167;SDS011;32931;47.778;17.806;2024-02-26T05:03:54;79.05;;;38.35;;
47167;SDS011;32931;47.778;17.806;2024-02-26T05:06:20;78.40;;;38.78;;
47167;SDS011;32931;47.778;17.806;2024-02-26T05:08:46;74.68;;;38.13;;
47167;SDS011;32931;47.778;17.806;2024-02-26T05:11:12;77.68;;;38.85;;
47167;SDS011;32931;47.778;17.806;2024-02-26T05:13:38;75.35;;;37.88;;
47167;SDS011;32931;47.778;17.806;2024-02-26T05:16:04;79.85;;;40.25;;
47167;SDS011;32931;47.778;17.806;2024-02-26T05:18:31;78.57;;;38.05;;
47167;SDS011;32931;47.778;17.806;2024-02-26T05:20:57;79.53;;;38.47;;
47167;SDS011;32931;47.778;17.806;2024-02-26T05:23:24;77.78;;;38.65;;
47167;SDS011;32931;47.778;17.806;2024-02-26T05:25:53;71.28;;;36.97;;
47167;SDS011;32931;47.778;17.806;2024-02-26T05:28:20;78.13;;;38.13;;
47167;SDS011;32931;47.778;17.806;2024-02-26T05:30:47;72.53;;;37.28;;
47167;SDS011;32931;47.778;17.806;2024-02-26T05:33:13;77.85;;;37.85;;
47167;SDS011;32931;47.778;17.806;2024-02-26T05:35:39;76.40;;;37.95;;
47167;SDS011;32931;47.778;17.806;2024-02-26T05:38:06;72.90;;;37.13;;
47167;SDS011;32931;47.778;17.806;2024-02-26T05:40:33;76.03;;;39.08;;
47167;SDS011;32931;47.778;17.806;2024-02-26T05:42:59;72.68;;;37.70;;
47167;SDS011;32931;47.778;17.806;2024-02-26T05:45:25;79.30;;;38.90;;
47167;SDS011;32931;47.778;17.806;2024-02-26T05:47:51;81.50;;;40.65;;
47167;SDS011;32931;47.778;17.806;2024-02-26T05:50:17;86.88;;;42.40;;
47167;SDS011;32931;47.778;17.806;2024-02-26T05:52:43;82.47;;;41.17;;
47167;SDS011;32931;47.778;17.806;2024-02-26T05:55:10;86.57;;;40.45;;
47167;SDS011;32931;47.778;17.806;2024-02-26T05:57:36;84.15;;;40.60;;
47167;SDS011;32931;47.778;17.806;2024-02-26T06:00:02;78.00;;;39.08;;
47167;SDS011;32931;47.778;17.806;2024-02-26T06:02:30;87.65;;;41.88;;
47167;SDS011;32931;47.778;17.806;2024-02-26T06:04:56;84.90;;;40.78;;
47167;SDS011;32931;47.778;17.806;2024-02-26T06:07:23;77.22;;;39.83;;
47167;SDS011;32931;47.778;17.806;2024-02-26T06:09:49;84.00;;;40.28;;
47167;SDS011;32931;47.778;17.806;2024-02-26T06:12:16;77.57;;;39.33;;
47167;SDS011;32931;47.778;17.806;2024-02-26T06:14:42;75.78;;;37.55;;
47167;SDS011;32931;47.778;17.806;2024-02-26T06:17:09;72.35;;;37.80;;
47167;SDS011;32931;47.778;17.806;2024-02-26T06:19:35;78.55;;;38.17;;
47167;SDS011;32931;47.778;17.806;2024-02-26T06:22:01;68.90;;;36.95;;
47167;SDS011;32931;47.778;17.806;2024-02-26T06:24:27;70.00;;;36.05;;
47167;SDS011;32931;47.778;17.806;2024-02-26T06:26:54;70.55;;;36.83;;
47167;SDS011;32931;47.778;17.806;2024-02-26T06:29:20;71.85;;;37.83;;
47167;SDS011;32931;47.778;17.806;2024-02-26T06:31:46;77.32;;;36.95;;
47167;SDS011;32931;47.778;17.806;2024-02-26T06:34:13;69.53;;;36.92;;
47167;SDS011;32931;47.778;17.806;2024-02-26T06:36:40;66.53;;;37.80;;
47167;SDS011;32931;47.778;17.806;2024-02-26T06:39:06;72.07;;;36.95;;
47167;SDS011;32931;47.778;17.806;2024-02-26T06:41:33;64.78;;;35.90;;
47167;SDS011;32931;47.778;17.806;2024-02-26T06:43:59;68.78;;;37.42;;
47167;SDS011;32931;47.778;17.806;2024-02-26T06:46:25;66.75;;;35.05;;
47167;SDS011;32931;47.778;17.806;2024-02-26T06:48:52;63.85;;;36.20;;
47167;SDS011;32931;47.778;17.806;2024-02-26T06:51:19;64.60;;;35.35;;
47167;SDS011;32931;47.778;17.806;2024-02-26T06:53:45;65.38;;;37.67;;
47167;SDS011;32931;47.778;17.806;2024-02-26T06:56:11;60.53;;;36.40;;
47167;SDS011;32931;47.778;17.806;2024-02-26T06:58:37;61.22;;;35.03;;
47167;SDS011;32931;47.778;17.806;2024-02-26T07:01:03;61.83;;;35.65;;
47167;SDS011;32931;47.778;17.806;2024-02-26T07:03:29;59.60;;;35.22;;
47167;SDS011;32931;47.778;17.806;2024-02-26T07:05:56;65.72;;;35.80;;
47167;SDS011;32931;47.778;17.806;2024-02-26T07:08:22;62.30;;;35.55;;
47167;SDS011;32931;47.778;17.806;2024-02-26T07:10:48;57.55;;;34.17;;
47167;SDS011;32931;47.778;17.806;2024-02-26T07:13:14;58.05;;;33.05;;
47167;SDS011;32931;47.778;17.806;2024-02-26T07:15:40;54.75;;;34.55;;
47167;SDS011;32931;47.778;17.806;2024-02-26T07:18:07;57.05;;;33.22;;
47167;SDS011;32931;47.778;17.806;2024-02-26T07:20:33;55.85;;;32.92;;
47167;SDS011;32931;47.778;17.806;2024-02-26T07:22:59;62.83;;;34.72;;
47167;SDS011;32931;47.778;17.806;2024-02-26T07:25:25;65.20;;;33.63;;
47167;SDS011;32931;47.778;17.806;2024-02-26T07:27:52;56.47;;;33.13;;
47167;SDS011;32931;47.778;17.806;2024-02-26T07:30:18;54.65;;;32.78;;
47167;SDS011;32931;47.778;17.806;2024-02-26T07:32:44;59.28;;;34.10;;
47167;SDS011;32931;47.778;17.806;2024-02-26T07:35:10;59.20;;;33.50;;
47167;SDS011;32931;47.778;17.806;2024-02-26T07:37:36;55.63;;;33.03;;
47167;SDS011;32931;47.778;17.806;2024-02-26T07:40:03;62.75;;;34.42;;
47167;SDS011;32931;47.778;17.806;2024-02-26T07:42:31;60.17;;;33.92;;
47167;SDS011;32931;47.778;17.806;2024-02-26T07:44:57;58.45;;;34.03;;
47167;SDS011;32931;47.778;17.806;2024-02-26T07:47:23;61.53;;;32.97;;
47167;SDS011;32931;47.778;17.806;2024-02-26T07:49:50;56.50;;;33.28;;
47167;SDS011;32931;47.778;17.806;2024-02-26T07:52:16;52.45;;;32.08;;
47167;SDS011;32931;47.778;17.806;2024-02-26T07:54:42;53.05;;;31.55;;
47167;SDS011;32931;47.778;17.806;2024-02-26T07:57:08;54.65;;;32.35;;
47167;SDS011;32931;47.778;17.806;2024-02-26T07:59:34;54.88;;;32.47;;
47167;SDS011;32931;47.778;17.806;2024-02-26T08:02:01;57.72;;;32.03;;
47167;SDS011;32931;47.778;17.806;2024-02-26T08:04:29;55.13;;;31.80;;
47167;SDS011;32931;47.778;17.806;2024-02-26T08:06:55;52.42;;;30.80;;
47167;SDS011;32931;47.778;17.806;2024-02-26T08:09:22;52.58;;;29.65;;
47167;SDS011;32931;47.778;17.806;2024-02-26T08:11:48;49.47;;;28.92;;
47167;SDS011;32931;47.778;17.806;2024-02-26T08:14:14;48.67;;;28.38;;
47167;SDS011;32931;47.778;17.806;2024-02-26T08:16:40;42.13;;;26.55;;
47167;SDS011;32931;47.778;17.806;2024-02-26T08:19:06;44.67;;;26.58;;
47167;SDS011;32931;47.778;17.806;2024-02-26T08:21:32;42.63;;;25.95;;
47167;SDS011;32931;47.778;17.806;2024-02-26T08:23:59;45.70;;;26.10;;
47167;SDS011;32931;47.778;17.806;2024-02-26T08:26:25;43.33;;;25.92;;
47167;SDS011;32931;47.778;17.806;2024-02-26T08:28:51;40.88;;;24.88;;
47167;SDS011;32931;47.778;17.806;2024-02-26T08:31:17;38.75;;;24.10;;
47167;SDS011;32931;47.778;17.806;2024-02-26T08:33:44;33.75;;;21.58;;
47167;SDS011;32931;47.778;17.806;2024-02-26T08:36:11;34.60;;;20.95;;
47167;SDS011;32931;47.778;17.806;2024-02-26T08:38:37;39.72;;;21.48;;
47167;SDS011;32931;47.778;17.806;2024-02-26T08:41:04;35.58;;;20.52;;
47167;SDS011;32931;47.778;17.806;2024-02-26T08:43:30;34.58;;;20.80;;
47167;SDS011;32931;47.778;17.806;2024-02-26T08:45:57;34.15;;;20.23;;
47167;SDS011;32931;47.778;17.806;2024-02-26T08:48:23;35.72;;;19.92;;
47167;SDS011;32931;47.778;17.806;2024-02-26T08:50:50;32.65;;;19.80;;
47167;SDS011;32931;47.778;17.806;2024-02-26T08:53:16;33.72;;;19.55;;
47167;SDS011;32931;47.778;17.806;2024-02-26T08:55:42;31.75;;;19.50;;
47167;SDS011;32931;47.778;17.806;2024-02-26T08:58:08;32.42;;;19.05;;
47167;SDS011;32931;47.778;17.806;2024-02-26T09:00:35;28.58;;;17.10;;
47167;SDS011;32931;47.778;17.806;2024-02-26T09:03:01;30.63;;;17.98;;
47167;SDS011;32931;47.778;17.806;2024-02-26T09:05:27;31.98;;;18.95;;
47167;SDS011;32931;47.778;17.806;2024-02-26T09:07:53;31.70;;;19.25;;
47167;SDS011;32931;47.778;17.806;2024-02-26T09:10:20;30.50;;;17.02;;
47167;SDS011;32931;47.778;17.806;2024-02-26T09:12:46;31.15;;;17.85;;
47167;SDS011;32931;47.778;17.806;2024-02-26T09:15:12;26.08;;;16.50;;
47167;SDS011;32931;47.778;17.806;2024-02-26T09:17:39;26.77;;;15.50;;
47167;SDS011;32931;47.778;17.806;2024-02-26T09:20:06;26.38;;;15.63;;
47167;SDS011;32931;47.778;17.806;2024-02-26T09:22:34;31.88;;;15.57;;
47167;SDS011;32931;47.778;17.806;2024-02-26T09:25:04;27.40;;;15.77;;
47167;SDS011;32931;47.778;17.806;2024-02-26T09:27:30;139.07;;;24.77;;
47167;SDS011;32931;47.778;17.806;2024-02-26T09:29:57;25.58;;;14.65;;
47167;SDS011;32931;47.778;17.806;2024-02-26T09:32:23;22.70;;;14.77;;
47167;SDS011;32931;47.778;17.806;2024-02-26T09:34:50;23.33;;;13.48;;
47167;SDS011;32931;47.778;17.806;2024-02-26T09:37:16;28.13;;;14.18;;
47167;SDS011;32931;47.778;17.806;2024-02-26T09:39:42;20.98;;;13.27;;
47167;SDS011;32931;47.778;17.806;2024-02-26T09:42:08;31.92;;;13.63;;
47167;SDS011;32931;47.778;17.806;2024-02-26T09:44:37;23.58;;;13.38;;
47167;SDS011;32931;47.778;17.806;2024-02-26T09:47:10;26.88;;;13.43;;
47167;SDS011;32931;47.778;17.806;2024-02-26T09:49:39;24.08;;;14.00;;
47167;SDS011;32931;47.778;17.806;2024-02-26T09:52:05;23.08;;;12.60;;
47167;SDS011;32931;47.778;17.806;2024-02-26T09:54:34;20.00;;;10.32;;
47167;SDS011;32931;47.778;17.806;2024-02-26T09:57:02;19.63;;;11.88;;
47167;SDS011;32931;47.778;17.806;2024-02-26T09:59:37;20.85;;;12.07;;
47167;SDS011;32931;47.778;17.806;2024-02-26T10:02:11;18.63;;;11.15;;
47167;SDS011;32931;47.778;17.806;2024-02-26T10:04:41;19.00;;;11.07;;
47167;SDS011;32931;47.778;17.806;2024-02-26T10:07:10;27.05;;;14.55;;
47167;SDS011;32931;47.778;17.806;2024-02-26T10:09:38;19.48;;;11.85;;
47167;SDS011;32931;47.778;17.806;2024-02-26T10:12:06;20.83;;;10.75;;
47167;SDS011;32931;47.778;17.806;2024-02-26T10:14:35;20.70;;;9.52;;
47167;SDS011;32931;47.778;17.806;2024-02-26T10:17:02;13.85;;;8.05;;
47167;SDS011;32931;47.778;17.806;2024-02-26T10:19:30;13.07;;;8.30;;
47167;SDS011;32931;47.778;17.806;2024-02-26T10:21:56;13.13;;;6.72;;
47167;SDS011;32931;47.778;17.806;2024-02-26T10:24:24;11.55;;;6.20;;
47167;SDS011;32931;47.778;17.806;2024-02-26T10:26:51;9.63;;;6.05;;
47167;SDS011;32931;47.778;17.806;2024-02-26T10:29:19;10.18;;;5.43;;
47167;SDS011;32931;47.778;17.806;2024-02-26T10:31:46;9.43;;;4.78;;
47167;SDS011;32931;47.778;17.806;2024-02-26T10:34:16;17.90;;;6.03;;
47167;SDS011;32931;47.778;17.806;2024-02-26T10:36:43;8.05;;;3.53;;
47167;SDS011;32931;47.778;17.806;2024-02-26T10:39:13;8.73;;;4.43;;
47167;SDS011;32931;47.778;17.806;2024-02-26T10:41:40;11.45;;;3.80;;
47167;SDS011;32931;47.778;17.806;2024-02-26T10:44:09;7.00;;;3.47;;
47167;SDS011;32931;47.778;17.806;2024-02-26T10:46:40;11.80;;;3.65;;
47167;SDS011;32931;47.778;17.806;2024-02-26T10:49:12;11.27;;;3.40;;
47167;SDS011;32931;47.778;17.806;2024-02-26T10:51:42;10.43;;;4.00;;
47167;SDS011;32931;47.778;17.806;2024-02-26T10:54:10;7.45;;;3.53;;
47167;SDS011;32931;47.778;17.806;2024-02-26T10:56:41;6.47;;;3.55;;
47167;SDS011;32931;47.778;17.806;2024-02-26T10:59:09;10.63;;;3.67;;
47167;SDS011;32931;47.778;17.806;2024-02-26T11:01:38;4.28;;;2.70;;
47167;SDS011;32931;47.778;17.806;2024-02-26T11:04:06;10.70;;;3.25;;
47167;SDS011;32931;47.778;17.806;2024-02-26T11:06:35;8.55;;;1.60;;
47167;SDS011;32931;47.778;17.806;2024-02-26T11:09:04;3.72;;;1.50;;
47167;SDS011;32931;47.778;17.806;2024-02-26T11:11:31;4.22;;;1.40;;
47167;SDS011;32931;47.778;17.806;2024-02-26T11:14:00;5.53;;;1.65;;
47167;SDS011;32931;47.778;17.806;2024-02-26T11:16:28;4.28;;;1.30;;
47167;SDS011;32931;47.778;17.806;2024-02-26T11:18:55;5.32;;;1.38;;
47167;SDS011;32931;47.778;17.806;2024-02-26T11:21:23;3.15;;;1.25;;
47167;SDS011;32931;47.778;17.806;2024-02-26T11:24:05;4.00;;;1.30;;
47167;SDS011;32931;47.778;17.806;2024-02-26T11:26:34;5.68;;;1.70;;
47167;SDS011;32931;47.778;17.806;2024-02-26T11:29:03;3.60;;;1.33;;
47167;SDS011;32931;47.778;17.806;2024-02-26T11:31:31;4.97;;;1.60;;
47167;SDS011;32931;47.778;17.806;2024-02-26T11:33:58;3.22;;;1.83;;
47167;SDS011;32931;47.778;17.806;2024-02-26T11:36:24;4.50;;;1.70;;
47167;SDS011;32931;47.778;17.806;2024-02-26T11:38:51;6.80;;;1.80;;
47167;SDS011;32931;47.778;17.806;2024-02-26T11:41:18;6.97;;;1.80;;
47167;SDS011;32931;47.778;17.806;2024-02-26T11:43:51;4.97;;;1.70;;
47167;SDS011;32931;47.778;17.806;2024-02-26T11:46:38;4.78;;;1.40;;
47167;SDS011;32931;47.778;17.806;2024-02-26T11:51:54;5.57;;;2.22;;
47167;SDS011;32931;47.778;17.806;2024-02-26T11:54:39;4.57;;;1.55;;
47167;SDS011;32931;47.778;17.806;2024-02-26T11:57:22;3.28;;;1.10;;
47167;SDS011;32931;47.778;17.806;2024-02-26T11:59:57;3.97;;;1.45;;
47167;SDS011;32931;47.778;17.806;2024-02-26T12:07:48;3.08;;;1.10;;
47167;SDS011;32931;47.778;17.806;2024-02-26T12:10:28;4.22;;;1.10;;
47167;SDS011;32931;47.778;17.806;2024-02-26T12:15:55;2.13;;;1.38;;
47167;SDS011;32931;47.778;17.806;2024-02-26T12:18:23;4.57;;;1.10;;
47167;SDS011;32931;47.778;17.806;2024-02-26T12:20:59;6.32;;;1.48;;
47167;SDS011;32931;47.778;17.806;2024-02-26T12:23:29;6.43;;;1.40;;
47167;SDS011;32931;47.778;17.806;2024-02-26T12:25:58;7.40;;;1.20;;
47167;SDS011;32931;47.778;17.806;2024-02-26T12:28:28;2.92;;;1.23;;
47167;SDS011;32931;47.778;17.806;2024-02-26T12:30:55;2.95;;;1.30;;
47167;SDS011;32931;47.778;17.806;2024-02-26T12:33:21;2.50;;;0.93;;
47167;SDS011;32931;47.778;17.806;2024-02-26T12:35:48;7.25;;;1.35;;
47167;SDS011;32931;47.778;17.806;2024-02-26T12:38:15;3.40;;;1.10;;
47167;SDS011;32931;47.778;17.806;2024-02-26T12:40:42;3.75;;;1.58;;
47167;SDS011;32931;47.778;17.806;2024-02-26T12:43:08;3.63;;;1.27;;
47167;SDS011;32931;47.778;17.806;2024-02-26T12:45:39;4.90;;;0.98;;
47167;SDS011;32931;47.778;17.806;2024-02-26T12:48:06;3.75;;;1.25;;
47167;SDS011;32931;47.778;17.806;2024-02-26T12:50:33;4.40;;;1.10;;
47167;SDS011;32931;47.778;17.806;2024-02-26T12:53:00;6.97;;;1.10;;
47167;SDS011;32931;47.778;17.806;2024-02-26T12:55:26;6.63;;;1.00;;
47167;SDS011;32931;47.778;17.806;2024-02-26T12:57:53;1.95;;;0.80;;
47167;SDS011;32931;47.778;17.806;2024-02-26T13:00:24;4.28;;;1.10;;
47167;SDS011;32931;47.778;17.806;2024-02-26T13:02:52;2.80;;;1.45;;
47167;SDS011;32931;47.778;17.806;2024-02-26T13:05:20;5.07;;;1.60;;
47167;SDS011;32931;47.778;17.806;2024-02-26T13:07:48;2.90;;;1.10;;
47167;SDS011;32931;47.778;17.806;2024-02-26T13:10:14;6.65;;;0.90;;
47167;SDS011;32931;47.778;17.806;2024-02-26T13:12:43;1.63;;;0.90;;
47167;SDS011;32931;47.778;17.806;2024-02-26T13:15:13;5.07;;;1.13;;
47167;SDS011;32931;47.778;17.806;2024-02-26T13:17:44;2.58;;;0.80;;
47167;SDS011;32931;47.778;17.806;2024-02-26T13:20:11;4.57;;;1.23;;
47167;SDS011;32931;47.778;17.806;2024-02-26T13:22:38;3.05;;;1.00;;
47167;SDS011;32931;47.778;17.806;2024-02-26T13:25:04;3.63;;;1.15;;
47167;SDS011;32931;47.778;17.806;2024-02-26T13:27:33;2.38;;;1.00;;
47167;SDS011;32931;47.778;17.806;2024-02-26T13:30:09;5.65;;;1.20;;
47167;SDS011;32931;47.778;17.806;2024-02-26T13:32:38;1.23;;;0.80;;
47167;SDS011;32931;47.778;17.806;2024-02-26T13:37:36;3.45;;;0.90;;
47167;SDS011;32931;47.778;17.806;2024-02-26T13:40:06;2.53;;;1.10;;
47167;SDS011;32931;47.778;17.806;2024-02-26T13:45:05;6.78;;;1.70;;
47167;SDS011;32931;47.778;17.806;2024-02-26T13:47:34;2.58;;;1.20;;
47167;SDS011;32931;47.778;17.806;2024-02-26T13:50:01;11.43;;;3.03;;
47167;SDS011;32931;47.778;17.806;2024-02-26T13:52:27;4.10;;;1.50;;
47167;SDS011;32931;47.778;17.806;2024-02-26T13:54:54;4.78;;;1.20;;
47167;SDS011;32931;47.778;17.806;2024-02-26T13:57:20;4.05;;;1.20;;
47167;SDS011;32931;47.778;17.806;2024-02-26T13:59:46;3.15;;;1.17;;
47167;SDS011;32931;47.778;17.806;2024-02-26T14:02:13;2.00;;;1.10;;
47167;SDS011;32931;47.778;17.806;2024-02-26T14:04:39;5.63;;;1.30;;
47167;SDS011;32931;47.778;17.806;2024-02-26T14:07:05;4.43;;;1.10;;
47167;SDS011;32931;47.778;17.806;2024-02-26T14:09:32;4.13;;;1.10;;
47167;SDS011;32931;47.778;17.806;2024-02-26T14:11:58;3.00;;;0.95;;
47167;SDS011;32931;47.778;17.806;2024-02-26T14:14:27;3.53;;;1.38;;
47167;SDS011;32931;47.778;17.806;2024-02-26T14:16:53;4.25;;;1.85;;
47167;SDS011;32931;47.778;17.806;2024-02-26T14:19:19;2.78;;;1.60;;
47167;SDS011;32931;47.778;17.806;2024-02-26T14:21:46;5.07;;;1.02;;
47167;SDS011;32931;47.778;17.806;2024-02-26T14:24:12;2.60;;;1.17;;
47167;SDS011;32931;47.778;17.806;2024-02-26T14:26:38;3.40;;;1.33;;
47167;SDS011;32931;47.778;17.806;2024-02-26T14:29:05;3.08;;;1.52;;
47167;SDS011;32931;47.778;17.806;2024-02-26T14:31:32;3.97;;;2.00;;
47167;SDS011;32931;47.778;17.806;2024-02-26T14:33:59;2.55;;;1.60;;